sensor_id;sensor_type;location;lat;lon;timestamp;P1;durP1;ratioP1;P2;durP2;ratioP2
45650;SDS011;31365;48.858;8.530;2022-08-19T00:01:24;16.00;;;14.60;;
45650;SDS011;31365;48.858;8.530;2022-08-19T00:03:56;15.88;;;14.43;;
45650;SDS011;31365;48.858;8.530;2022-08-19T00:06:25;14.18;;;12.80;;
45650;SDS011;31365;48.858;8.530;2022-08-19T00:08:53;14.75;;;13.38;;
45650;SDS011;31365;48.858;8.530;2022-08-19T00:11:23;14.57;;;13.27;;
45650;SDS011;31365;48.858;8.530;2022-08-19T00:13:54;14.52;;;13.20;;
45650;SDS011;31365;48.858;8.530;2022-08-19T00:16:23;16.95;;;15.32;;
45650;SDS011;31365;48.858;8.530;2022-08-19T00:18:52;14.45;;;13.10;;
45650;SDS011;31365;48.858;8.530;2022-08-19T00:21:22;13.75;;;12.55;;
45650;SDS011;31365;48.858;8.530;2022-08-19T00:23:51;15.90;;;14.32;;
45650;SDS011;31365;48.858;8.530;2022-08-19T00:26:19;15.80;;;14.25;;
45650;SDS011;31365;48.858;8.530;2022-08-19T00:28:49;16.20;;;14.77;;
45650;SDS011;31365;48.858;8.530;2022-08-19T00:31:17;14.98;;;13.60;;
45650;SDS011;31365;48.858;8.530;2022-08-19T00:33:45;15.50;;;14.10;;
45650;SDS011;31365;48.858;8.530;2022-08-19T00:36:14;14.68;;;13.43;;
45650;SDS011;31365;48.858;8.530;2022-08-19T00:38:42;16.25;;;13.20;;
45650;SDS011;31365;48.858;8.530;2022-08-19T00:41:12;15.15;;;13.75;;
45650;SDS011;31365;48.858;8.530;2022-08-19T00:43:41;14.13;;;12.93;;
45650;SDS011;31365;48.858;8.530;2022-08-19T00:46:10;13.85;;;12.73;;
45650;SDS011;31365;48.858;8.530;2022-08-19T00:48:39;14.07;;;12.68;;
45650;SDS011;31365;48.858;8.530;2022-08-19T00:51:07;14.32;;;13.02;;
45650;SDS011;31365;48.858;8.530;2022-08-19T00:53:36;14.70;;;13.45;;
45650;SDS011;31365;48.858;8.530;2022-08-19T00:56:06;14.68;;;13.38;;
45650;SDS011;31365;48.858;8.530;2022-08-19T00:58:35;15.57;;;14.02;;
45650;SDS011;31365;48.858;8.530;2022-08-19T01:01:04;14.85;;;13.57;;
45650;SDS011;31365;48.858;8.530;2022-08-19T01:03:35;12.45;;;11.35;;
45650;SDS011;31365;48.858;8.530;2022-08-19T01:06:24;14.18;;;13.02;;
45650;SDS011;31365;48.858;8.530;2022-08-19T01:08:53;15.25;;;13.85;;
45650;SDS011;31365;48.858;8.530;2022-08-19T01:11:22;15.15;;;13.75;;
45650;SDS011;31365;48.858;8.530;2022-08-19T01:13:50;14.43;;;13.02;;
45650;SDS011;31365;48.858;8.530;2022-08-19T01:16:22;13.25;;;12.15;;
45650;SDS011;31365;48.858;8.530;2022-08-19T01:18:54;15.52;;;14.07;;
45650;SDS011;31365;48.858;8.530;2022-08-19T01:21:24;15.10;;;13.57;;
45650;SDS011;31365;48.858;8.530;2022-08-19T01:23:59;13.25;;;12.15;;
45650;SDS011;31365;48.858;8.530;2022-08-19T01:26:28;14.73;;;13.52;;
45650;SDS011;31365;48.858;8.530;2022-08-19T01:28:58;16.25;;;14.75;;
45650;SDS011;31365;48.858;8.530;2022-08-19T01:31:30;15.43;;;14.10;;
45650;SDS011;31365;48.858;8.530;2022-08-19T01:33:59;14.90;;;13.60;;
45650;SDS011;31365;48.858;8.530;2022-08-19T01:36:29;15.20;;;13.90;;
45650;SDS011;31365;48.858;8.530;2022-08-19T01:39:02;15.50;;;14.00;;
45650;SDS011;31365;48.858;8.530;2022-08-19T01:41:32;16.88;;;15.27;;
45650;SDS011;31365;48.858;8.530;2022-08-19T01:44:02;15.57;;;14.15;;
45650;SDS011;31365;48.858;8.530;2022-08-19T01:46:45;17.00;;;15.60;;
45650;SDS011;31365;48.858;8.530;2022-08-19T01:49:15;16.23;;;14.82;;
45650;SDS011;31365;48.858;8.530;2022-08-19T01:51:45;16.05;;;14.55;;
45650;SDS011;31365;48.858;8.530;2022-08-19T01:54:16;15.98;;;14.40;;
45650;SDS011;31365;48.858;8.530;2022-08-19T01:56:53;17.00;;;15.38;;
45650;SDS011;31365;48.858;8.530;2022-08-19T01:59:26;15.80;;;14.32;;
45650;SDS011;31365;48.858;8.530;2022-08-19T02:01:56;16.33;;;14.75;;
45650;SDS011;31365;48.858;8.530;2022-08-19T02:04:24;15.45;;;13.95;;
45650;SDS011;31365;48.858;8.530;2022-08-19T02:06:53;15.30;;;13.98;;
45650;SDS011;31365;48.858;8.530;2022-08-19T02:09:23;14.93;;;13.73;;
45650;SDS011;31365;48.858;8.530;2022-08-19T02:11:51;15.57;;;14.27;;
45650;SDS011;31365;48.858;8.530;2022-08-19T02:14:19;15.88;;;14.48;;
45650;SDS011;31365;48.858;8.530;2022-08-19T02:16:48;16.70;;;15.20;;
45650;SDS011;31365;48.858;8.530;2022-08-19T02:19:16;15.88;;;14.35;;
45650;SDS011;31365;48.858;8.530;2022-08-19T02:21:44;16.73;;;15.23;;
45650;SDS011;31365;48.858;8.530;2022-08-19T02:24:13;16.27;;;14.80;;
45650;SDS011;31365;48.858;8.530;2022-08-19T02:26:43;16.42;;;15.02;;
45650;SDS011;31365;48.858;8.530;2022-08-19T02:29:12;16.42;;;14.77;;
45650;SDS011;31365;48.858;8.530;2022-08-19T02:31:40;16.95;;;15.63;;
45650;SDS011;31365;48.858;8.530;2022-08-19T02:34:09;16.38;;;15.05;;
45650;SDS011;31365;48.858;8.530;2022-08-19T02:36:37;16.70;;;15.10;;
45650;SDS011;31365;48.858;8.530;2022-08-19T02:39:08;15.82;;;14.32;;
45650;SDS011;31365;48.858;8.530;2022-08-19T02:41:35;17.23;;;15.65;;
45650;SDS011;31365;48.858;8.530;2022-08-19T02:44:05;15.15;;;13.85;;
45650;SDS011;31365;48.858;8.530;2022-08-19T02:46:53;16.75;;;15.25;;
45650;SDS011;31365;48.858;8.530;2022-08-19T02:49:22;15.95;;;14.55;;
45650;SDS011;31365;48.858;8.530;2022-08-19T02:51:50;15.50;;;14.20;;
45650;SDS011;31365;48.858;8.530;2022-08-19T02:54:18;18.75;;;17.15;;
45650;SDS011;31365;48.858;8.530;2022-08-19T02:56:47;17.17;;;15.05;;
45650;SDS011;31365;48.858;8.530;2022-08-19T02:59:17;17.27;;;15.77;;
45650;SDS011;31365;48.858;8.530;2022-08-19T03:01:48;17.25;;;15.75;;
45650;SDS011;31365;48.858;8.530;2022-08-19T03:04:16;17.10;;;15.50;;
45650;SDS011;31365;48.858;8.530;2022-08-19T03:06:46;15.68;;;14.30;;
45650;SDS011;31365;48.858;8.530;2022-08-19T03:09:15;16.40;;;14.90;;
45650;SDS011;31365;48.858;8.530;2022-08-19T03:11:44;16.58;;;15.18;;
45650;SDS011;31365;48.858;8.530;2022-08-19T03:14:19;17.35;;;15.75;;
45650;SDS011;31365;48.858;8.530;2022-08-19T03:16:48;19.02;;;16.80;;
45650;SDS011;31365;48.858;8.530;2022-08-19T03:19:18;18.27;;;16.55;;
45650;SDS011;31365;48.858;8.530;2022-08-19T03:21:47;19.98;;;17.85;;
45650;SDS011;31365;48.858;8.530;2022-08-19T03:24:16;20.20;;;18.45;;
45650;SDS011;31365;48.858;8.530;2022-08-19T03:26:45;19.23;;;17.50;;
45650;SDS011;31365;48.858;8.530;2022-08-19T03:29:15;17.77;;;16.17;;
45650;SDS011;31365;48.858;8.530;2022-08-19T03:31:58;19.90;;;18.00;;
45650;SDS011;31365;48.858;8.530;2022-08-19T03:34:30;16.27;;;14.88;;
45650;SDS011;31365;48.858;8.530;2022-08-19T03:37:03;17.83;;;16.23;;
45650;SDS011;31365;48.858;8.530;2022-08-19T03:39:35;17.17;;;15.65;;
45650;SDS011;31365;48.858;8.530;2022-08-19T03:42:04;17.92;;;16.42;;
45650;SDS011;31365;48.858;8.530;2022-08-19T03:44:53;18.08;;;16.58;;
45650;SDS011;31365;48.858;8.530;2022-08-19T03:47:23;19.20;;;17.35;;
45650;SDS011;31365;48.858;8.530;2022-08-19T03:49:52;19.35;;;17.55;;
45650;SDS011;31365;48.858;8.530;2022-08-19T03:52:20;18.17;;;16.58;;
45650;SDS011;31365;48.858;8.530;2022-08-19T03:54:48;19.38;;;17.50;;
45650;SDS011;31365;48.858;8.530;2022-08-19T03:57:16;18.45;;;16.85;;
45650;SDS011;31365;48.858;8.530;2022-08-19T03:59:44;18.98;;;17.25;;
45650;SDS011;31365;48.858;8.530;2022-08-19T04:02:13;16.52;;;15.02;;
45650;SDS011;31365;48.858;8.530;2022-08-19T04:04:43;18.48;;;16.98;;
45650;SDS011;31365;48.858;8.530;2022-08-19T04:07:12;17.20;;;15.70;;
45650;SDS011;31365;48.858;8.530;2022-08-19T04:09:42;19.75;;;17.95;;
45650;SDS011;31365;48.858;8.530;2022-08-19T04:12:10;19.48;;;17.80;;
45650;SDS011;31365;48.858;8.530;2022-08-19T04:14:39;19.13;;;17.33;;
45650;SDS011;31365;48.858;8.530;2022-08-19T04:17:07;18.35;;;16.60;;
45650;SDS011;31365;48.858;8.530;2022-08-19T04:19:35;19.25;;;17.48;;
45650;SDS011;31365;48.858;8.530;2022-08-19T04:22:06;18.50;;;16.80;;
45650;SDS011;31365;48.858;8.530;2022-08-19T04:24:34;18.83;;;17.05;;
45650;SDS011;31365;48.858;8.530;2022-08-19T04:27:03;21.05;;;19.05;;
45650;SDS011;31365;48.858;8.530;2022-08-19T04:29:33;20.05;;;17.38;;
45650;SDS011;31365;48.858;8.530;2022-08-19T04:32:01;18.60;;;16.90;;
45650;SDS011;31365;48.858;8.530;2022-08-19T04:34:35;20.50;;;18.67;;
45650;SDS011;31365;48.858;8.530;2022-08-19T04:37:25;20.80;;;18.80;;
45650;SDS011;31365;48.858;8.530;2022-08-19T04:40:00;21.48;;;19.67;;
45650;SDS011;31365;48.858;8.530;2022-08-19T04:42:48;20.17;;;18.38;;
45650;SDS011;31365;48.858;8.530;2022-08-19T04:45:16;19.98;;;17.98;;
45650;SDS011;31365;48.858;8.530;2022-08-19T04:47:48;19.00;;;17.30;;
45650;SDS011;31365;48.858;8.530;2022-08-19T04:50:32;19.02;;;17.23;;
45650;SDS011;31365;48.858;8.530;2022-08-19T04:53:02;18.48;;;16.73;;
45650;SDS011;31365;48.858;8.530;2022-08-19T04:55:31;17.65;;;16.15;;
45650;SDS011;31365;48.858;8.530;2022-08-19T04:58:04;18.60;;;17.10;;
45650;SDS011;31365;48.858;8.530;2022-08-19T05:00:32;18.95;;;17.25;;
45650;SDS011;31365;48.858;8.530;2022-08-19T05:03:03;18.63;;;17.02;;
45650;SDS011;31365;48.858;8.530;2022-08-19T05:05:33;19.85;;;17.98;;
45650;SDS011;31365;48.858;8.530;2022-08-19T05:08:12;18.27;;;16.45;;
45650;SDS011;31365;48.858;8.530;2022-08-19T05:10:56;18.88;;;17.25;;
45650;SDS011;31365;48.858;8.530;2022-08-19T05:13:25;20.60;;;18.67;;
45650;SDS011;31365;48.858;8.530;2022-08-19T05:15:54;19.52;;;17.77;;
45650;SDS011;31365;48.858;8.530;2022-08-19T05:18:25;18.50;;;16.95;;
45650;SDS011;31365;48.858;8.530;2022-08-19T05:21:12;19.50;;;17.70;;
45650;SDS011;31365;48.858;8.530;2022-08-19T05:24:01;19.88;;;18.08;;
45650;SDS011;31365;48.858;8.530;2022-08-19T05:26:30;19.80;;;17.88;;
45650;SDS011;31365;48.858;8.530;2022-08-19T05:28:58;19.75;;;18.08;;
45650;SDS011;31365;48.858;8.530;2022-08-19T05:31:26;19.80;;;18.05;;
45650;SDS011;31365;48.858;8.530;2022-08-19T05:33:54;21.02;;;19.15;;
45650;SDS011;31365;48.858;8.530;2022-08-19T05:36:25;21.00;;;19.13;;
45650;SDS011;31365;48.858;8.530;2022-08-19T05:38:53;21.33;;;19.63;;
45650;SDS011;31365;48.858;8.530;2022-08-19T05:41:23;20.65;;;18.90;;
45650;SDS011;31365;48.858;8.530;2022-08-19T05:43:57;17.33;;;15.70;;
45650;SDS011;31365;48.858;8.530;2022-08-19T05:46:26;20.50;;;18.48;;
45650;SDS011;31365;48.858;8.530;2022-08-19T05:48:54;21.90;;;19.90;;
45650;SDS011;31365;48.858;8.530;2022-08-19T05:51:23;19.85;;;18.00;;
45650;SDS011;31365;48.858;8.530;2022-08-19T05:53:54;21.25;;;19.35;;
45650;SDS011;31365;48.858;8.530;2022-08-19T05:56:24;20.70;;;18.90;;
45650;SDS011;31365;48.858;8.530;2022-08-19T05:58:53;20.75;;;18.83;;
45650;SDS011;31365;48.858;8.530;2022-08-19T06:01:24;17.60;;;16.10;;
45650;SDS011;31365;48.858;8.530;2022-08-19T06:03:53;19.00;;;17.40;;
45650;SDS011;31365;48.858;8.530;2022-08-19T06:06:22;21.05;;;18.95;;
45650;SDS011;31365;48.858;8.530;2022-08-19T06:08:50;20.13;;;18.23;;
45650;SDS011;31365;48.858;8.530;2022-08-19T06:11:19;19.38;;;17.67;;
45650;SDS011;31365;48.858;8.530;2022-08-19T06:13:51;19.35;;;17.75;;
45650;SDS011;31365;48.858;8.530;2022-08-19T06:16:25;20.13;;;18.35;;
45650;SDS011;31365;48.858;8.530;2022-08-19T06:18:54;20.50;;;18.65;;
45650;SDS011;31365;48.858;8.530;2022-08-19T06:21:24;19.10;;;17.20;;
45650;SDS011;31365;48.858;8.530;2022-08-19T06:23:54;17.73;;;16.13;;
45650;SDS011;31365;48.858;8.530;2022-08-19T06:26:23;16.65;;;15.23;;
45650;SDS011;31365;48.858;8.530;2022-08-19T06:28:54;17.88;;;16.10;;
45650;SDS011;31365;48.858;8.530;2022-08-19T06:31:23;17.05;;;15.45;;
45650;SDS011;31365;48.858;8.530;2022-08-19T06:33:52;15.15;;;13.75;;
45650;SDS011;31365;48.858;8.530;2022-08-19T06:36:21;17.58;;;16.10;;
45650;SDS011;31365;48.858;8.530;2022-08-19T06:38:54;16.67;;;15.27;;
45650;SDS011;31365;48.858;8.530;2022-08-19T06:41:23;18.35;;;16.65;;
45650;SDS011;31365;48.858;8.530;2022-08-19T06:43:53;18.95;;;16.85;;
45650;SDS011;31365;48.858;8.530;2022-08-19T06:46:23;17.85;;;16.17;;
45650;SDS011;31365;48.858;8.530;2022-08-19T06:48:52;17.65;;;15.98;;
45650;SDS011;31365;48.858;8.530;2022-08-19T06:51:21;17.35;;;15.68;;
45650;SDS011;31365;48.858;8.530;2022-08-19T06:53:55;17.15;;;15.23;;
45650;SDS011;31365;48.858;8.530;2022-08-19T06:56:24;16.77;;;15.38;;
45650;SDS011;31365;48.858;8.530;2022-08-19T06:58:58;16.73;;;15.13;;
45650;SDS011;31365;48.858;8.530;2022-08-19T07:01:27;17.10;;;15.63;;
45650;SDS011;31365;48.858;8.530;2022-08-19T07:03:56;16.42;;;14.93;;
45650;SDS011;31365;48.858;8.530;2022-08-19T07:06:24;17.83;;;16.23;;
45650;SDS011;31365;48.858;8.530;2022-08-19T07:09:10;15.35;;;14.15;;
45650;SDS011;31365;48.858;8.530;2022-08-19T07:11:43;15.20;;;14.00;;
45650;SDS011;31365;48.858;8.530;2022-08-19T07:14:15;16.00;;;14.55;;
45650;SDS011;31365;48.858;8.530;2022-08-19T07:16:46;14.30;;;13.02;;
45650;SDS011;31365;48.858;8.530;2022-08-19T07:19:15;16.23;;;14.82;;
45650;SDS011;31365;48.858;8.530;2022-08-19T07:21:45;15.50;;;14.20;;
45650;SDS011;31365;48.858;8.530;2022-08-19T07:24:14;15.68;;;14.38;;
45650;SDS011;31365;48.858;8.530;2022-08-19T07:26:42;14.35;;;13.05;;
45650;SDS011;31365;48.858;8.530;2022-08-19T07:29:11;15.00;;;13.63;;
45650;SDS011;31365;48.858;8.530;2022-08-19T07:31:41;13.90;;;12.75;;
45650;SDS011;31365;48.858;8.530;2022-08-19T07:34:10;15.20;;;13.93;;
45650;SDS011;31365;48.858;8.530;2022-08-19T07:36:41;14.55;;;13.13;;
45650;SDS011;31365;48.858;8.530;2022-08-19T07:39:10;13.73;;;12.40;;
45650;SDS011;31365;48.858;8.530;2022-08-19T07:41:40;13.70;;;12.32;;
45650;SDS011;31365;48.858;8.530;2022-08-19T07:44:08;13.45;;;12.20;;
45650;SDS011;31365;48.858;8.530;2022-08-19T07:46:38;13.73;;;12.63;;
45650;SDS011;31365;48.858;8.530;2022-08-19T07:49:16;16.33;;;12.02;;
45650;SDS011;31365;48.858;8.530;2022-08-19T07:51:45;15.40;;;12.52;;
45650;SDS011;31365;48.858;8.530;2022-08-19T07:54:15;15.30;;;13.90;;
45650;SDS011;31365;48.858;8.530;2022-08-19T07:56:43;15.50;;;14.13;;
45650;SDS011;31365;48.858;8.530;2022-08-19T08:10:27;13.98;;;12.68;;
45650;SDS011;31365;48.858;8.530;2022-08-19T08:12:56;13.15;;;12.00;;
45650;SDS011;31365;48.858;8.530;2022-08-19T08:15:36;14.48;;;13.18;;
45650;SDS011;31365;48.858;8.530;2022-08-19T08:18:08;13.82;;;12.55;;
45650;SDS011;31365;48.858;8.530;2022-08-19T08:20:39;14.60;;;13.25;;
45650;SDS011;31365;48.858;8.530;2022-08-19T08:23:08;13.95;;;12.80;;
45650;SDS011;31365;48.858;8.530;2022-08-19T08:25:54;18.30;;;13.20;;
45650;SDS011;31365;48.858;8.530;2022-08-19T08:28:26;14.00;;;12.77;;
45650;SDS011;31365;48.858;8.530;2022-08-19T08:30:56;13.23;;;11.93;;
45650;SDS011;31365;48.858;8.530;2022-08-19T08:33:26;13.85;;;12.55;;
45650;SDS011;31365;48.858;8.530;2022-08-19T08:36:00;13.57;;;12.55;;
45650;SDS011;31365;48.858;8.530;2022-08-19T08:38:30;12.10;;;11.02;;
45650;SDS011;31365;48.858;8.530;2022-08-19T08:41:11;11.20;;;10.10;;
45650;SDS011;31365;48.858;8.530;2022-08-19T08:43:50;11.90;;;10.70;;
45650;SDS011;31365;48.858;8.530;2022-08-19T08:46:21;11.80;;;10.73;;
45650;SDS011;31365;48.858;8.530;2022-08-19T08:48:59;11.75;;;10.57;;
45650;SDS011;31365;48.858;8.530;2022-08-19T08:51:37;12.25;;;11.13;;
45650;SDS011;31365;48.858;8.530;2022-08-19T08:54:13;11.95;;;11.00;;
45650;SDS011;31365;48.858;8.530;2022-08-19T08:56:48;10.38;;;9.48;;
45650;SDS011;31365;48.858;8.530;2022-08-19T08:59:21;11.13;;;10.23;;
45650;SDS011;31365;48.858;8.530;2022-08-19T09:01:58;11.48;;;10.50;;
45650;SDS011;31365;48.858;8.530;2022-08-19T09:04:27;10.48;;;9.45;;
45650;SDS011;31365;48.858;8.530;2022-08-19T09:06:58;12.65;;;10.45;;
45650;SDS011;31365;48.858;8.530;2022-08-19T09:10:02;10.40;;;9.60;;
45650;SDS011;31365;48.858;8.530;2022-08-19T09:12:47;12.10;;;11.05;;
45650;SDS011;31365;48.858;8.530;2022-08-19T09:15:28;10.57;;;9.52;;
45650;SDS011;31365;48.858;8.530;2022-08-19T09:18:03;10.65;;;9.20;;
45650;SDS011;31365;48.858;8.530;2022-08-19T09:20:32;8.57;;;7.82;;
45650;SDS011;31365;48.858;8.530;2022-08-19T09:23:06;8.35;;;7.28;;
45650;SDS011;31365;48.858;8.530;2022-08-19T09:25:37;8.57;;;7.68;;
45650;SDS011;31365;48.858;8.530;2022-08-19T09:28:07;8.40;;;7.70;;
45650;SDS011;31365;48.858;8.530;2022-08-19T09:30:48;8.50;;;7.70;;
45650;SDS011;31365;48.858;8.530;2022-08-19T09:33:18;8.05;;;7.38;;
45650;SDS011;31365;48.858;8.530;2022-08-19T09:35:47;8.57;;;7.75;;
45650;SDS011;31365;48.858;8.530;2022-08-19T09:38:19;9.70;;;8.05;;
45650;SDS011;31365;48.858;8.530;2022-08-19T09:40:47;8.52;;;7.25;;
45650;SDS011;31365;48.858;8.530;2022-08-19T09:43:18;7.63;;;6.93;;
45650;SDS011;31365;48.858;8.530;2022-08-19T09:46:07;6.32;;;5.82;;
45650;SDS011;31365;48.858;8.530;2022-08-19T09:48:36;7.38;;;6.85;;
45650;SDS011;31365;48.858;8.530;2022-08-19T09:51:06;7.07;;;6.53;;
45650;SDS011;31365;48.858;8.530;2022-08-19T09:53:38;8.40;;;7.03;;
45650;SDS011;31365;48.858;8.530;2022-08-19T09:56:06;8.82;;;7.47;;
45650;SDS011;31365;48.858;8.530;2022-08-19T09:58:36;9.20;;;7.05;;
45650;SDS011;31365;48.858;8.530;2022-08-19T10:01:07;7.60;;;6.90;;
45650;SDS011;31365;48.858;8.530;2022-08-19T10:03:37;7.38;;;6.68;;
45650;SDS011;31365;48.858;8.530;2022-08-19T10:06:05;6.93;;;6.32;;
45650;SDS011;31365;48.858;8.530;2022-08-19T10:08:42;6.47;;;5.97;;
45650;SDS011;31365;48.858;8.530;2022-08-19T10:11:16;8.55;;;7.68;;
45650;SDS011;31365;48.858;8.530;2022-08-19T10:13:55;7.30;;;6.80;;
45650;SDS011;31365;48.858;8.530;2022-08-19T10:16:23;7.20;;;6.60;;
45650;SDS011;31365;48.858;8.530;2022-08-19T10:18:55;7.65;;;6.97;;
45650;SDS011;31365;48.858;8.530;2022-08-19T10:21:29;10.18;;;7.32;;
45650;SDS011;31365;48.858;8.530;2022-08-19T10:24:03;7.32;;;6.63;;
45650;SDS011;31365;48.858;8.530;2022-08-19T10:26:35;7.30;;;6.60;;
45650;SDS011;31365;48.858;8.530;2022-08-19T10:29:09;7.57;;;6.88;;
45650;SDS011;31365;48.858;8.530;2022-08-19T10:31:37;7.80;;;7.10;;
45650;SDS011;31365;48.858;8.530;2022-08-19T10:34:26;7.45;;;6.78;;
45650;SDS011;31365;48.858;8.530;2022-08-19T10:36:56;6.78;;;6.18;;
45650;SDS011;31365;48.858;8.530;2022-08-19T10:39:27;7.00;;;6.30;;
45650;SDS011;31365;48.858;8.530;2022-08-19T10:42:08;5.80;;;5.30;;
45650;SDS011;31365;48.858;8.530;2022-08-19T10:44:40;6.07;;;5.45;;
45650;SDS011;31365;48.858;8.530;2022-08-19T10:47:09;6.72;;;6.13;;
45650;SDS011;31365;48.858;8.530;2022-08-19T10:49:50;5.82;;;5.32;;
45650;SDS011;31365;48.858;8.530;2022-08-19T10:52:37;5.55;;;5.13;;
45650;SDS011;31365;48.858;8.530;2022-08-19T10:55:16;5.90;;;5.35;;
45650;SDS011;31365;48.858;8.530;2022-08-19T10:58:09;5.53;;;4.70;;
45650;SDS011;31365;48.858;8.530;2022-08-19T11:00:41;5.55;;;4.85;;
45650;SDS011;31365;48.858;8.530;2022-08-19T11:03:10;7.53;;;4.72;;
45650;SDS011;31365;48.858;8.530;2022-08-19T11:05:38;5.45;;;5.00;;
45650;SDS011;31365;48.858;8.530;2022-08-19T11:08:07;5.93;;;5.03;;
45650;SDS011;31365;48.858;8.530;2022-08-19T11:10:49;6.70;;;5.53;;
45650;SDS011;31365;48.858;8.530;2022-08-19T11:13:25;6.03;;;5.40;;
45650;SDS011;31365;48.858;8.530;2022-08-19T11:16:01;6.28;;;5.65;;
45650;SDS011;31365;48.858;8.530;2022-08-19T11:18:34;6.20;;;5.60;;
45650;SDS011;31365;48.858;8.530;2022-08-19T11:21:05;5.55;;;5.15;;
45650;SDS011;31365;48.858;8.530;2022-08-19T11:23:36;6.22;;;5.47;;
45650;SDS011;31365;48.858;8.530;2022-08-19T11:26:05;5.30;;;4.88;;
45650;SDS011;31365;48.858;8.530;2022-08-19T11:28:34;4.97;;;4.57;;
45650;SDS011;31365;48.858;8.530;2022-08-19T11:31:04;5.57;;;5.18;;
45650;SDS011;31365;48.858;8.530;2022-08-19T11:33:38;5.32;;;4.82;;
45650;SDS011;31365;48.858;8.530;2022-08-19T11:36:06;6.45;;;4.97;;
45650;SDS011;31365;48.858;8.530;2022-08-19T11:38:40;6.28;;;5.78;;
45650;SDS011;31365;48.858;8.530;2022-08-19T11:41:09;6.18;;;5.68;;
45650;SDS011;31365;48.858;8.530;2022-08-19T11:43:37;6.78;;;5.07;;
45650;SDS011;31365;48.858;8.530;2022-08-19T11:46:08;6.60;;;5.43;;
45650;SDS011;31365;48.858;8.530;2022-08-19T11:48:40;6.13;;;5.38;;
45650;SDS011;31365;48.858;8.530;2022-08-19T11:51:10;8.75;;;5.70;;
45650;SDS011;31365;48.858;8.530;2022-08-19T11:53:42;6.15;;;5.70;;
45650;SDS011;31365;48.858;8.530;2022-08-19T11:56:10;5.90;;;5.38;;
45650;SDS011;31365;48.858;8.530;2022-08-19T11:58:39;8.73;;;7.03;;
45650;SDS011;31365;48.858;8.530;2022-08-19T12:01:09;6.53;;;6.03;;
45650;SDS011;31365;48.858;8.530;2022-08-19T12:03:42;8.93;;;6.97;;
45650;SDS011;31365;48.858;8.530;2022-08-19T12:06:12;6.65;;;6.15;;
45650;SDS011;31365;48.858;8.530;2022-08-19T12:08:44;6.25;;;5.65;;
45650;SDS011;31365;48.858;8.530;2022-08-19T12:11:13;5.88;;;5.38;;
45650;SDS011;31365;48.858;8.530;2022-08-19T12:13:43;7.15;;;6.43;;
45650;SDS011;31365;48.858;8.530;2022-08-19T12:16:14;7.00;;;6.45;;
45650;SDS011;31365;48.858;8.530;2022-08-19T12:18:44;6.22;;;5.78;;
45650;SDS011;31365;48.858;8.530;2022-08-19T12:21:14;6.28;;;5.68;;
45650;SDS011;31365;48.858;8.530;2022-08-19T12:23:47;5.95;;;5.30;;
45650;SDS011;31365;48.858;8.530;2022-08-19T12:26:21;6.13;;;5.68;;
45650;SDS011;31365;48.858;8.530;2022-08-19T12:28:51;6.05;;;5.50;;
45650;SDS011;31365;48.858;8.530;2022-08-19T12:31:21;6.43;;;5.47;;
45650;SDS011;31365;48.858;8.530;2022-08-19T12:33:50;6.57;;;5.88;;
45650;SDS011;31365;48.858;8.530;2022-08-19T12:36:19;6.82;;;6.13;;
45650;SDS011;31365;48.858;8.530;2022-08-19T12:38:50;5.68;;;5.18;;
45650;SDS011;31365;48.858;8.530;2022-08-19T12:41:18;7.05;;;6.45;;
45650;SDS011;31365;48.858;8.530;2022-08-19T12:43:48;6.45;;;5.82;;
45650;SDS011;31365;48.858;8.530;2022-08-19T12:46:17;6.00;;;5.50;;
45650;SDS011;31365;48.858;8.530;2022-08-19T12:48:51;8.52;;;5.85;;
45650;SDS011;31365;48.858;8.530;2022-08-19T12:51:21;5.65;;;5.25;;
45650;SDS011;31365;48.858;8.530;2022-08-19T12:53:50;6.38;;;5.78;;
45650;SDS011;31365;48.858;8.530;2022-08-19T12:56:18;5.70;;;5.30;;
45650;SDS011;31365;48.858;8.530;2022-08-19T12:58:48;7.38;;;6.65;;
45650;SDS011;31365;48.858;8.530;2022-08-19T13:01:18;7.60;;;6.90;;
45650;SDS011;31365;48.858;8.530;2022-08-19T13:03:48;7.18;;;6.47;;
45650;SDS011;31365;48.858;8.530;2022-08-19T13:06:19;7.32;;;6.65;;
45650;SDS011;31365;48.858;8.530;2022-08-19T13:08:48;7.70;;;6.95;;
45650;SDS011;31365;48.858;8.530;2022-08-19T13:11:16;6.97;;;6.38;;
45650;SDS011;31365;48.858;8.530;2022-08-19T13:13:51;7.40;;;6.80;;
45650;SDS011;31365;48.858;8.530;2022-08-19T13:16:21;6.43;;;6.03;;
45650;SDS011;31365;48.858;8.530;2022-08-19T13:18:51;8.50;;;7.68;;
45650;SDS011;31365;48.858;8.530;2022-08-19T13:21:20;7.53;;;6.90;;
45650;SDS011;31365;48.858;8.530;2022-08-19T13:23:52;8.25;;;7.50;;
45650;SDS011;31365;48.858;8.530;2022-08-19T13:26:21;7.30;;;6.63;;
45650;SDS011;31365;48.858;8.530;2022-08-19T13:28:50;8.45;;;7.75;;
45650;SDS011;31365;48.858;8.530;2022-08-19T13:31:38;9.23;;;7.53;;
45650;SDS011;31365;48.858;8.530;2022-08-19T13:34:28;7.95;;;7.20;;
45650;SDS011;31365;48.858;8.530;2022-08-19T13:37:00;8.40;;;7.70;;
45650;SDS011;31365;48.858;8.530;2022-08-19T13:39:30;9.20;;;7.38;;
45650;SDS011;31365;48.858;8.530;2022-08-19T13:42:00;7.85;;;7.25;;
45650;SDS011;31365;48.858;8.530;2022-08-19T13:44:31;8.02;;;7.40;;
45650;SDS011;31365;48.858;8.530;2022-08-19T13:47:00;7.07;;;6.47;;
45650;SDS011;31365;48.858;8.530;2022-08-19T13:49:34;7.05;;;6.53;;
45650;SDS011;31365;48.858;8.530;2022-08-19T13:52:03;7.18;;;6.57;;
45650;SDS011;31365;48.858;8.530;2022-08-19T13:54:32;7.22;;;6.63;;
45650;SDS011;31365;48.858;8.530;2022-08-19T13:57:01;6.22;;;5.72;;
45650;SDS011;31365;48.858;8.530;2022-08-19T13:59:30;6.90;;;6.40;;
45650;SDS011;31365;48.858;8.530;2022-08-19T14:01:59;6.78;;;6.28;;
45650;SDS011;31365;48.858;8.530;2022-08-19T14:04:28;5.97;;;5.57;;
45650;SDS011;31365;48.858;8.530;2022-08-19T14:06:57;6.47;;;5.88;;
45650;SDS011;31365;48.858;8.530;2022-08-19T14:09:26;5.50;;;5.10;;
45650;SDS011;31365;48.858;8.530;2022-08-19T14:11:54;5.78;;;5.10;;
45650;SDS011;31365;48.858;8.530;2022-08-19T14:14:22;4.78;;;4.38;;
45650;SDS011;31365;48.858;8.530;2022-08-19T14:16:51;4.93;;;4.53;;
45650;SDS011;31365;48.858;8.530;2022-08-19T14:19:19;4.10;;;3.80;;
45650;SDS011;31365;48.858;8.530;2022-08-19T14:21:48;7.20;;;3.70;;
45650;SDS011;31365;48.858;8.530;2022-08-19T14:24:21;4.22;;;3.83;;
45650;SDS011;31365;48.858;8.530;2022-08-19T14:26:58;4.00;;;3.45;;
45650;SDS011;31365;48.858;8.530;2022-08-19T14:29:33;4.00;;;3.70;;
45650;SDS011;31365;48.858;8.530;2022-08-19T14:32:01;3.53;;;3.22;;
45650;SDS011;31365;48.858;8.530;2022-08-19T14:34:30;3.92;;;3.45;;
45650;SDS011;31365;48.858;8.530;2022-08-19T14:36:59;5.57;;;3.47;;
45650;SDS011;31365;48.858;8.530;2022-08-19T14:39:29;3.20;;;3.00;;
45650;SDS011;31365;48.858;8.530;2022-08-19T14:41:57;3.67;;;3.38;;
45650;SDS011;31365;48.858;8.530;2022-08-19T14:44:26;6.22;;;3.72;;
45650;SDS011;31365;48.858;8.530;2022-08-19T14:46:54;3.70;;;3.40;;
45650;SDS011;31365;48.858;8.530;2022-08-19T14:49:24;3.95;;;3.55;;
45650;SDS011;31365;48.858;8.530;2022-08-19T14:52:01;3.70;;;3.40;;
45650;SDS011;31365;48.858;8.530;2022-08-19T14:54:32;3.63;;;3.33;;
45650;SDS011;31365;48.858;8.530;2022-08-19T14:57:00;4.32;;;3.35;;
45650;SDS011;31365;48.858;8.530;2022-08-19T14:59:29;3.80;;;3.47;;
45650;SDS011;31365;48.858;8.530;2022-08-19T15:01:57;4.15;;;3.50;;
45650;SDS011;31365;48.858;8.530;2022-08-19T15:04:46;3.80;;;3.50;;
45650;SDS011;31365;48.858;8.530;2022-08-19T15:07:23;4.28;;;3.97;;